sensor_id;sensor_type;location;lat;lon;timestamp;temperature;humidity
8178;DHT22;4130;48.740;9.132;2023-08-30T00:01:01;12.80;99.90
8178;DHT22;4130;48.740;9.132;2023-08-30T00:03:28;12.70;99.90
8178;DHT22;4130;48.740;9.132;2023-08-30T00:05:55;12.70;99.90
8178;DHT22;4130;48.740;9.132;2023-08-30T00:08:21;12.70;99.90
8178;DHT22;4130;48.740;9.132;2023-08-30T00:10:50;12.70;99.90
8178;DHT22;4130;48.740;9.132;2023-08-30T00:13:16;12.70;99.90
8178;DHT22;4130;48.740;9.132;2023-08-30T00:15:43;13.00;99.90
8178;DHT22;4130;48.740;9.132;2023-08-30T00:18:10;12.70;99.90
8178;DHT22;4130;48.740;9.132;2023-08-30T00:20:37;13.50;99.90
8178;DHT22;4130;48.740;9.132;2023-08-30T00:23:03;12.70;99.90
8178;DHT22;4130;48.740;9.132;2023-08-30T00:25:31;12.70;99.90
8178;DHT22;4130;48.740;9.132;2023-08-30T00:27:59;12.80;99.90
8178;DHT22;4130;48.740;9.132;2023-08-30T00:30:25;12.60;99.90
8178;DHT22;4130;48.740;9.132;2023-08-30T00:32:52;13.80;99.90
8178;DHT22;4130;48.740;9.132;2023-08-30T00:35:19;13.40;99.90
8178;DHT22;4130;48.740;9.132;2023-08-30T00:37:46;12.60;99.90
8178;DHT22;4130;48.740;9.132;2023-08-30T00:40:12;12.70;99.90
8178;DHT22;4130;48.740;9.132;2023-08-30T00:42:39;12.70;99.90
8178;DHT22;4130;48.740;9.132;2023-08-30T00:45:09;12.60;99.90
8178;DHT22;4130;48.740;9.132;2023-08-30T00:47:36;12.60;99.90
8178;DHT22;4130;48.740;9.132;2023-08-30T00:50:03;12.70;99.90
8178;DHT22;4130;48.740;9.132;2023-08-30T00:52:30;12.60;99.90
8178;DHT22;4130;48.740;9.132;2023-08-30T00:54:57;12.70;99.90
8178;DHT22;4130;48.740;9.132;2023-08-30T00:57:24;14.60;99.90
8178;DHT22;4130;48.740;9.132;2023-08-30T00:59:51;12.70;99.90
8178;DHT22;4130;48.740;9.132;2023-08-30T01:02:21;12.70;99.90
8178;DHT22;4130;48.740;9.132;2023-08-30T01:04:49;13.60;99.90
8178;DHT22;4130;48.740;9.132;2023-08-30T01:07:16;12.80;99.90
8178;DHT22;4130;48.740;9.132;2023-08-30T01:09:44;12.80;99.90
8178;DHT22;4130;48.740;9.132;2023-08-30T01:12:16;12.70;99.90
8178;DHT22;4130;48.740;9.132;2023-08-30T01:14:52;12.70;99.90
8178;DHT22;4130;48.740;9.132;2023-08-30T01:17:22;14.50;99.90
8178;DHT22;4130;48.740;9.132;2023-08-30T01:19:54;12.70;99.90
8178;DHT22;4130;48.740;9.132;2023-08-30T01:22:34;12.70;99.90
8178;DHT22;4130;48.740;9.132;2023-08-30T01:25:12;13.80;99.90
8178;DHT22;4130;48.740;9.132;2023-08-30T01:27:43;12.70;99.90
8178;DHT22;4130;48.740;9.132;2023-08-30T01:30:12;12.70;99.90
8178;DHT22;4130;48.740;9.132;2023-08-30T01:32:39;12.70;99.90
8178;DHT22;4130;48.740;9.132;2023-08-30T01:35:07;12.60;99.90
8178;DHT22;4130;48.740;9.132;2023-08-30T01:37:35;12.60;99.90
8178;DHT22;4130;48.740;9.132;2023-08-30T01:40:04;12.60;99.90
8178;DHT22;4130;48.740;9.132;2023-08-30T01:42:32;12.50;99.90
8178;DHT22;4130;48.740;9.132;2023-08-30T01:45:03;12.40;99.90
8178;DHT22;4130;48.740;9.132;2023-08-30T01:47:31;12.40;99.90
8178;DHT22;4130;48.740;9.132;2023-08-30T01:49:59;12.40;99.90
8178;DHT22;4130;48.740;9.132;2023-08-30T01:52:26;12.50;99.90
8178;DHT22;4130;48.740;9.132;2023-08-30T01:54:53;12.50;99.90
8178;DHT22;4130;48.740;9.132;2023-08-30T01:57:20;12.80;99.90
8178;DHT22;4130;48.740;9.132;2023-08-30T01:59:47;14.10;99.90
8178;DHT22;4130;48.740;9.132;2023-08-30T02:02:15;12.50;99.90
8178;DHT22;4130;48.740;9.132;2023-08-30T02:04:42;13.80;99.90
8178;DHT22;4130;48.740;9.132;2023-08-30T02:07:13;13.60;99.90
8178;DHT22;4130;48.740;9.132;2023-08-30T02:09:47;12.50;99.90
8178;DHT22;4130;48.740;9.132;2023-08-30T02:12:17;12.50;99.90
8178;DHT22;4130;48.740;9.132;2023-08-30T02:14:48;12.40;99.90
8178;DHT22;4130;48.740;9.132;2023-08-30T02:17:17;12.50;99.90
8178;DHT22;4130;48.740;9.132;2023-08-30T02:19:44;12.50;99.90
8178;DHT22;4130;48.740;9.132;2023-08-30T02:22:12;12.50;99.90
8178;DHT22;4130;48.740;9.132;2023-08-30T02:24:39;12.50;99.90
8178;DHT22;4130;48.740;9.132;2023-08-30T02:27:05;13.50;99.90
8178;DHT22;4130;48.740;9.132;2023-08-30T02:29:32;12.90;99.90
8178;DHT22;4130;48.740;9.132;2023-08-30T02:31:59;12.40;99.90
8178;DHT22;4130;48.740;9.132;2023-08-30T02:34:27;12.40;99.90
8178;DHT22;4130;48.740;9.132;2023-08-30T02:36:54;12.40;99.90
8178;DHT22;4130;48.740;9.132;2023-08-30T02:39:21;12.30;99.90
8178;DHT22;4130;48.740;9.132;2023-08-30T02:41:48;12.20;99.90
8178;DHT22;4130;48.740;9.132;2023-08-30T02:44:15;12.20;99.90
8178;DHT22;4130;48.740;9.132;2023-08-30T02:46:42;12.20;99.90
8178;DHT22;4130;48.740;9.132;2023-08-30T02:49:08;12.10;99.90
8178;DHT22;4130;48.740;9.132;2023-08-30T02:51:38;12.10;99.90
8178;DHT22;4130;48.740;9.132;2023-08-30T02:54:05;12.10;99.90
8178;DHT22;4130;48.740;9.132;2023-08-30T02:56:32;12.10;99.90
8178;DHT22;4130;48.740;9.132;2023-08-30T02:58:59;12.00;99.90
8178;DHT22;4130;48.740;9.132;2023-08-30T03:01:25;12.60;99.90
8178;DHT22;4130;48.740;9.132;2023-08-30T03:03:52;12.00;99.90
8178;DHT22;4130;48.740;9.132;2023-08-30T03:06:19;12.70;99.90
8178;DHT22;4130;48.740;9.132;2023-08-30T03:08:47;12.00;99.90
8178;DHT22;4130;48.740;9.132;2023-08-30T03:11:14;12.30;99.90
8178;DHT22;4130;48.740;9.132;2023-08-30T03:13:40;11.90;99.90
8178;DHT22;4130;48.740;9.132;2023-08-30T03:16:11;12.00;99.90
8178;DHT22;4130;48.740;9.132;2023-08-30T03:18:38;11.90;99.90
8178;DHT22;4130;48.740;9.132;2023-08-30T03:21:05;12.00;99.90
8178;DHT22;4130;48.740;9.132;2023-08-30T03:23:32;11.90;99.90
8178;DHT22;4130;48.740;9.132;2023-08-30T03:26:06;11.90;99.90
8178;DHT22;4130;48.740;9.132;2023-08-30T03:28:33;11.90;99.90
8178;DHT22;4130;48.740;9.132;2023-08-30T03:31:00;12.60;99.90
8178;DHT22;4130;48.740;9.132;2023-08-30T03:33:26;11.80;99.90
8178;DHT22;4130;48.740;9.132;2023-08-30T03:35:53;11.80;99.90
8178;DHT22;4130;48.740;9.132;2023-08-30T03:38:20;12.00;99.90
8178;DHT22;4130;48.740;9.132;2023-08-30T03:40:52;12.20;99.90
8178;DHT22;4130;48.740;9.132;2023-08-30T03:43:20;12.10;99.90
8178;DHT22;4130;48.740;9.132;2023-08-30T03:45:48;12.50;99.90
8178;DHT22;4130;48.740;9.132;2023-08-30T03:48:14;11.90;99.90
8178;DHT22;4130;48.740;9.132;2023-08-30T03:50:41;12.80;99.90
8178;DHT22;4130;48.740;9.132;2023-08-30T03:53:08;12.00;99.90
8178;DHT22;4130;48.740;9.132;2023-08-30T03:55:35;12.00;99.90
8178;DHT22;4130;48.740;9.132;2023-08-30T03:58:01;12.00;99.90
8178;DHT22;4130;48.740;9.132;2023-08-30T04:00:30;11.90;99.90
8178;DHT22;4130;48.740;9.132;2023-08-30T04:02:56;12.10;99.90
8178;DHT22;4130;48.740;9.132;2023-08-30T04:05:23;12.00;99.90
8178;DHT22;4130;48.740;9.132;2023-08-30T04:07:50;12.00;99.90
8178;DHT22;4130;48.740;9.132;2023-08-30T04:10:17;12.10;99.90
8178;DHT22;4130;48.740;9.132;2023-08-30T04:12:43;12.00;99.90
8178;DHT22;4130;48.740;9.132;2023-08-30T04:15:10;12.10;99.90
8178;DHT22;4130;48.740;9.132;2023-08-30T04:17:39;12.80;99.90
8178;DHT22;4130;48.740;9.132;2023-08-30T04:20:07;12.50;99.90
8178;DHT22;4130;48.740;9.132;2023-08-30T04:22:35;12.10;99.90
8178;DHT22;4130;48.740;9.132;2023-08-30T04:25:05;12.10;99.90
8178;DHT22;4130;48.740;9.132;2023-08-30T04:27:34;12.00;99.90
8178;DHT22;4130;48.740;9.132;2023-08-30T04:30:01;12.10;99.90
8178;DHT22;4130;48.740;9.132;2023-08-30T04:32:28;12.20;99.90
8178;DHT22;4130;48.740;9.132;2023-08-30T04:34:56;12.20;99.90
8178;DHT22;4130;48.740;9.132;2023-08-30T04:37:23;12.70;99.90
8178;DHT22;4130;48.740;9.132;2023-08-30T04:39:50;12.20;99.90
8178;DHT22;4130;48.740;9.132;2023-08-30T04:42:16;12.30;99.90
8178;DHT22;4130;48.740;9.132;2023-08-30T04:44:43;12.30;99.90
8178;DHT22;4130;48.740;9.132;2023-08-30T04:47:10;12.30;99.90
8178;DHT22;4130;48.740;9.132;2023-08-30T04:49:37;12.50;99.90
8178;DHT22;4130;48.740;9.132;2023-08-30T04:52:05;12.30;99.90
8178;DHT22;4130;48.740;9.132;2023-08-30T04:54:32;12.40;99.90
8178;DHT22;4130;48.740;9.132;2023-08-30T04:56:59;13.80;99.90
8178;DHT22;4130;48.740;9.132;2023-08-30T04:59:26;13.20;99.90
8178;DHT22;4130;48.740;9.132;2023-08-30T05:01:52;13.10;99.90
8178;DHT22;4130;48.740;9.132;2023-08-30T05:04:19;12.50;99.90
8178;DHT22;4130;48.740;9.132;2023-08-30T05:06:46;12.50;99.90
8178;DHT22;4130;48.740;9.132;2023-08-30T05:09:14;12.50;99.90
8178;DHT22;4130;48.740;9.132;2023-08-30T05:11:41;12.60;99.90
8178;DHT22;4130;48.740;9.132;2023-08-30T05:14:08;12.70;99.90
8178;DHT22;4130;48.740;9.132;2023-08-30T05:16:38;12.60;99.90
8178;DHT22;4130;48.740;9.132;2023-08-30T05:19:05;12.70;99.90
8178;DHT22;4130;48.740;9.132;2023-08-30T05:21:32;13.30;99.90
8178;DHT22;4130;48.740;9.132;2023-08-30T05:23:59;12.70;99.90
8178;DHT22;4130;48.740;9.132;2023-08-30T05:26:27;12.80;99.90
8178;DHT22;4130;48.740;9.132;2023-08-30T05:28:53;12.90;99.90
8178;DHT22;4130;48.740;9.132;2023-08-30T05:31:20;14.10;99.90
8178;DHT22;4130;48.740;9.132;2023-08-30T05:33:47;12.90;99.90
8178;DHT22;4130;48.740;9.132;2023-08-30T05:36:14;12.90;99.90
8178;DHT22;4130;48.740;9.132;2023-08-30T05:38:41;12.90;99.90
8178;DHT22;4130;48.740;9.132;2023-08-30T05:41:07;13.00;99.90
8178;DHT22;4130;48.740;9.132;2023-08-30T05:43:35;13.00;99.90
8178;DHT22;4130;48.740;9.132;2023-08-30T05:46:02;13.90;99.90
8178;DHT22;4130;48.740;9.132;2023-08-30T05:48:30;13.20;99.90
8178;DHT22;4130;48.740;9.132;2023-08-30T05:50:56;13.20;99.90
8178;DHT22;4130;48.740;9.132;2023-08-30T05:53:23;13.20;99.90
8178;DHT22;4130;48.740;9.132;2023-08-30T05:55:50;13.20;99.90
8178;DHT22;4130;48.740;9.132;2023-08-30T05:58:17;13.20;99.90
8178;DHT22;4130;48.740;9.132;2023-08-30T06:00:46;13.20;99.90
8178;DHT22;4130;48.740;9.132;2023-08-30T06:03:13;13.20;99.90
8178;DHT22;4130;48.740;9.132;2023-08-30T06:05:40;13.20;99.90
8178;DHT22;4130;48.740;9.132;2023-08-30T06:08:08;13.30;99.90
8178;DHT22;4130;48.740;9.132;2023-08-30T06:10:35;13.30;99.90
8178;DHT22;4130;48.740;9.132;2023-08-30T06:13:02;13.40;99.90
8178;DHT22;4130;48.740;9.132;2023-08-30T06:15:29;13.40;99.90
8178;DHT22;4130;48.740;9.132;2023-08-30T06:17:57;12.70;99.90
8178;DHT22;4130;48.740;9.132;2023-08-30T06:20:25;13.60;99.90
8178;DHT22;4130;48.740;9.132;2023-08-30T06:22:51;13.70;99.90
8178;DHT22;4130;48.740;9.132;2023-08-30T06:25:18;15.10;99.90
8178;DHT22;4130;48.740;9.132;2023-08-30T06:27:55;13.80;99.90
8178;DHT22;4130;48.740;9.132;2023-08-30T06:30:22;13.90;99.90
8178;DHT22;4130;48.740;9.132;2023-08-30T06:32:49;14.70;99.90
8178;DHT22;4130;48.740;9.132;2023-08-30T06:35:17;13.90;99.90
8178;DHT22;4130;48.740;9.132;2023-08-30T06:37:44;14.50;99.90
8178;DHT22;4130;48.740;9.132;2023-08-30T06:40:11;14.00;99.90
8178;DHT22;4130;48.740;9.132;2023-08-30T06:42:38;14.00;99.90
8178;DHT22;4130;48.740;9.132;2023-08-30T06:45:06;14.10;99.90
8178;DHT22;4130;48.740;9.132;2023-08-30T06:47:33;14.00;99.90
8178;DHT22;4130;48.740;9.132;2023-08-30T06:50:00;13.80;99.90
8178;DHT22;4130;48.740;9.132;2023-08-30T06:52:30;14.10;99.90
8178;DHT22;4130;48.740;9.132;2023-08-30T06:54:57;14.20;99.90
8178;DHT22;4130;48.740;9.132;2023-08-30T06:57:24;14.60;99.90
8178;DHT22;4130;48.740;9.132;2023-08-30T06:59:51;14.60;99.90
8178;DHT22;4130;48.740;9.132;2023-08-30T07:02:17;14.20;99.90
8178;DHT22;4130;48.740;9.132;2023-08-30T07:04:44;14.20;99.90
8178;DHT22;4130;48.740;9.132;2023-08-30T07:07:12;14.20;99.90
8178;DHT22;4130;48.740;9.132;2023-08-30T07:09:41;14.20;99.90
8178;DHT22;4130;48.740;9.132;2023-08-30T07:12:08;14.30;99.90
8178;DHT22;4130;48.740;9.132;2023-08-30T07:14:35;14.40;99.90
8178;DHT22;4130;48.740;9.132;2023-08-30T07:17:02;14.40;99.90
8178;DHT22;4130;48.740;9.132;2023-08-30T07:19:29;14.30;99.90
8178;DHT22;4130;48.740;9.132;2023-08-30T07:21:56;14.80;99.90
8178;DHT22;4130;48.740;9.132;2023-08-30T07:24:22;14.30;99.90
8178;DHT22;4130;48.740;9.132;2023-08-30T07:26:50;14.40;99.90
8178;DHT22;4130;48.740;9.132;2023-08-30T07:29:17;15.00;99.90
8178;DHT22;4130;48.740;9.132;2023-08-30T07:31:44;14.30;99.90
8178;DHT22;4130;48.740;9.132;2023-08-30T07:34:11;14.60;99.90
8178;DHT22;4130;48.740;9.132;2023-08-30T07:36:38;14.40;99.90
8178;DHT22;4130;48.740;9.132;2023-08-30T07:39:04;14.30;99.90
8178;DHT22;4130;48.740;9.132;2023-08-30T07:41:34;14.50;99.90
8178;DHT22;4130;48.740;9.132;2023-08-30T07:44:02;14.50;99.90
8178;DHT22;4130;48.740;9.132;2023-08-30T07:46:29;14.50;99.90
8178;DHT22;4130;48.740;9.132;2023-08-30T07:48:56;14.60;99.90
8178;DHT22;4130;48.740;9.132;2023-08-30T07:51:23;14.70;99.90
8178;DHT22;4130;48.740;9.132;2023-08-30T07:53:49;14.80;99.90
8178;DHT22;4130;48.740;9.132;2023-08-30T07:56:16;14.90;99.90
8178;DHT22;4130;48.740;9.132;2023-08-30T07:58:43;14.90;99.90
8178;DHT22;4130;48.740;9.132;2023-08-30T08:01:11;15.00;99.90
8178;DHT22;4130;48.740;9.132;2023-08-30T08:03:38;15.00;99.90
8178;DHT22;4130;48.740;9.132;2023-08-30T08:06:08;16.10;99.90
8178;DHT22;4130;48.740;9.132;2023-08-30T08:08:35;16.20;99.90
8178;DHT22;4130;48.740;9.132;2023-08-30T08:11:02;15.20;99.90
8178;DHT22;4130;48.740;9.132;2023-08-30T08:13:29;15.30;99.90
8178;DHT22;4130;48.740;9.132;2023-08-30T08:15:56;15.40;99.90
8178;DHT22;4130;48.740;9.132;2023-08-30T08:18:25;16.40;99.90
8178;DHT22;4130;48.740;9.132;2023-08-30T08:20:52;15.30;99.90
8178;DHT22;4130;48.740;9.132;2023-08-30T08:23:19;15.30;99.90
8178;DHT22;4130;48.740;9.132;2023-08-30T08:25:46;15.40;99.90
8178;DHT22;4130;48.740;9.132;2023-08-30T08:28:13;15.50;99.90
8178;DHT22;4130;48.740;9.132;2023-08-30T08:30:39;15.60;99.90
8178;DHT22;4130;48.740;9.132;2023-08-30T08:33:07;16.10;99.90
8178;DHT22;4130;48.740;9.132;2023-08-30T08:35:36;16.80;99.90
8178;DHT22;4130;48.740;9.132;2023-08-30T08:38:03;16.20;99.90
8178;DHT22;4130;48.740;9.132;2023-08-30T08:40:29;15.70;99.90
8178;DHT22;4130;48.740;9.132;2023-08-30T08:42:56;15.80;99.90
8178;DHT22;4130;48.740;9.132;2023-08-30T08:45:23;17.00;99.90
8178;DHT22;4130;48.740;9.132;2023-08-30T08:47:51;16.10;99.90
8178;DHT22;4130;48.740;9.132;2023-08-30T08:50:18;17.60;99.90
8178;DHT22;4130;48.740;9.132;2023-08-30T08:52:47;16.30;99.90
8178;DHT22;4130;48.740;9.132;2023-08-30T08:55:14;16.50;99.90
8178;DHT22;4130;48.740;9.132;2023-08-30T08:57:42;16.60;99.90
8178;DHT22;4130;48.740;9.132;2023-08-30T09:00:11;16.70;99.90
8178;DHT22;4130;48.740;9.132;2023-08-30T09:02:39;16.50;99.90
8178;DHT22;4130;48.740;9.132;2023-08-30T09:05:07;16.30;99.90
8178;DHT22;4130;48.740;9.132;2023-08-30T09:07:35;16.30;99.90
8178;DHT22;4130;48.740;9.132;2023-08-30T09:10:04;16.20;99.90
8178;DHT22;4130;48.740;9.132;2023-08-30T09:12:32;16.10;99.90
8178;DHT22;4130;48.740;9.132;2023-08-30T09:14:59;16.10;99.90
8178;DHT22;4130;48.740;9.132;2023-08-30T09:17:35;16.10;99.90
8178;DHT22;4130;48.740;9.132;2023-08-30T09:20:07;16.30;99.90
8178;DHT22;4130;48.740;9.132;2023-08-30T09:22:38;16.20;99.90
8178;DHT22;4130;48.740;9.132;2023-08-30T09:25:08;16.80;99.90
8178;DHT22;4130;48.740;9.132;2023-08-30T09:27:36;16.30;99.90
8178;DHT22;4130;48.740;9.132;2023-08-30T09:30:04;16.70;99.90
8178;DHT22;4130;48.740;9.132;2023-08-30T09:32:39;17.10;99.90
8178;DHT22;4130;48.740;9.132;2023-08-30T09:35:07;17.30;99.90
8178;DHT22;4130;48.740;9.132;2023-08-30T09:37:34;17.40;99.90
8178;DHT22;4130;48.740;9.132;2023-08-30T09:40:00;17.70;99.90
8178;DHT22;4130;48.740;9.132;2023-08-30T09:42:29;18.00;99.90
8178;DHT22;4130;48.740;9.132;2023-08-30T09:44:56;18.20;99.90
8178;DHT22;4130;48.740;9.132;2023-08-30T09:47:24;18.20;99.90
8178;DHT22;4130;48.740;9.132;2023-08-30T09:49:54;18.50;99.90
8178;DHT22;4130;48.740;9.132;2023-08-30T09:52:24;18.60;99.90
8178;DHT22;4130;48.740;9.132;2023-08-30T09:54:51;18.60;99.90
8178;DHT22;4130;48.740;9.132;2023-08-30T09:57:19;18.90;99.90
8178;DHT22;4130;48.740;9.132;2023-08-30T09:59:48;19.90;99.90
8178;DHT22;4130;48.740;9.132;2023-08-30T10:02:15;20.30;99.90
8178;DHT22;4130;48.740;9.132;2023-08-30T10:04:44;19.50;99.90
8178;DHT22;4130;48.740;9.132;2023-08-30T10:07:11;19.70;99.90
8178;DHT22;4130;48.740;9.132;2023-08-30T10:09:38;19.70;99.90
8178;DHT22;4130;48.740;9.132;2023-08-30T10:12:06;19.70;99.90
8178;DHT22;4130;48.740;9.132;2023-08-30T10:14:34;19.90;99.90
8178;DHT22;4130;48.740;9.132;2023-08-30T10:17:03;21.50;99.90
8178;DHT22;4130;48.740;9.132;2023-08-30T10:19:31;20.10;99.90
8178;DHT22;4130;48.740;9.132;2023-08-30T10:22:01;20.70;99.90
8178;DHT22;4130;48.740;9.132;2023-08-30T10:24:33;20.00;99.90
8178;DHT22;4130;48.740;9.132;2023-08-30T10:27:04;20.60;99.90
8178;DHT22;4130;48.740;9.132;2023-08-30T10:29:33;20.40;99.90
8178;DHT22;4130;48.740;9.132;2023-08-30T10:32:05;21.70;99.90
8178;DHT22;4130;48.740;9.132;2023-08-30T10:34:33;20.50;99.90
8178;DHT22;4130;48.740;9.132;2023-08-30T10:37:02;20.50;99.90
8178;DHT22;4130;48.740;9.132;2023-08-30T10:39:36;20.30;99.90
8178;DHT22;4130;48.740;9.132;2023-08-30T10:42:08;20.60;99.90
8178;DHT22;4130;48.740;9.132;2023-08-30T10:44:46;20.50;99.90
8178;DHT22;4130;48.740;9.132;2023-08-30T10:47:19;20.70;99.90
8178;DHT22;4130;48.740;9.132;2023-08-30T10:49:47;21.00;99.90
8178;DHT22;4130;48.740;9.132;2023-08-30T10:52:14;21.20;99.90
8178;DHT22;4130;48.740;9.132;2023-08-30T10:54:41;22.10;99.90
8178;DHT22;4130;48.740;9.132;2023-08-30T10:57:13;21.10;99.90
8178;DHT22;4130;48.740;9.132;2023-08-30T10:59:40;22.50;99.90
8178;DHT22;4130;48.740;9.132;2023-08-30T11:02:07;21.30;99.90
8178;DHT22;4130;48.740;9.132;2023-08-30T11:04:39;20.70;99.90
8178;DHT22;4130;48.740;9.132;2023-08-30T11:07:07;20.90;99.90
8178;DHT22;4130;48.740;9.132;2023-08-30T11:09:33;20.80;99.90
8178;DHT22;4130;48.740;9.132;2023-08-30T11:12:05;21.20;99.90
8178;DHT22;4130;48.740;9.132;2023-08-30T11:14:32;21.00;99.90
8178;DHT22;4130;48.740;9.132;2023-08-30T11:16:59;21.30;99.90
8178;DHT22;4130;48.740;9.132;2023-08-30T11:19:29;21.20;99.90
8178;DHT22;4130;48.740;9.132;2023-08-30T11:21:58;21.40;99.90
8178;DHT22;4130;48.740;9.132;2023-08-30T11:24:25;21.00;99.90
8178;DHT22;4130;48.740;9.132;2023-08-30T11:26:54;21.10;99.90
8178;DHT22;4130;48.740;9.132;2023-08-30T11:29:21;21.20;99.90
8178;DHT22;4130;48.740;9.132;2023-08-30T11:31:49;22.00;99.90
8178;DHT22;4130;48.740;9.132;2023-08-30T11:34:20;21.00;99.80
8178;DHT22;4130;48.740;9.132;2023-08-30T11:36:47;20.90;99.70
8178;DHT22;4130;48.740;9.132;2023-08-30T11:39:16;21.80;99.90
8178;DHT22;4130;48.740;9.132;2023-08-30T11:41:43;20.10;99.90
8178;DHT22;4130;48.740;9.132;2023-08-30T11:44:10;19.90;99.90
8178;DHT22;4130;48.740;9.132;2023-08-30T11:46:37;19.60;99.90
8178;DHT22;4130;48.740;9.132;2023-08-30T11:49:04;19.30;99.90
8178;DHT22;4130;48.740;9.132;2023-08-30T11:51:31;18.70;99.90
8178;DHT22;4130;48.740;9.132;2023-08-30T11:53:59;19.50;99.90
8178;DHT22;4130;48.740;9.132;2023-08-30T11:56:29;18.80;99.90
8178;DHT22;4130;48.740;9.132;2023-08-30T11:58:57;17.50;99.90
8178;DHT22;4130;48.740;9.132;2023-08-30T12:01:23;16.40;99.90
8178;DHT22;4130;48.740;9.132;2023-08-30T12:03:50;16.80;99.90
8178;DHT22;4130;48.740;9.132;2023-08-30T12:06:17;16.30;99.90
8178;DHT22;4130;48.740;9.132;2023-08-30T12:08:44;17.10;99.90
8178;DHT22;4130;48.740;9.132;2023-08-30T12:11:19;15.40;99.90
8178;DHT22;4130;48.740;9.132;2023-08-30T12:13:47;16.60;99.90
8178;DHT22;4130;48.740;9.132;2023-08-30T12:16:17;15.00;99.90
8178;DHT22;4130;48.740;9.132;2023-08-30T12:18:46;14.90;99.90
8178;DHT22;4130;48.740;9.132;2023-08-30T12:21:13;15.00;99.90
8178;DHT22;4130;48.740;9.132;2023-08-30T12:23:41;15.10;99.90
8178;DHT22;4130;48.740;9.132;2023-08-30T12:26:08;15.20;99.90
8178;DHT22;4130;48.740;9.132;2023-08-30T12:28:37;15.70;99.90
8178;DHT22;4130;48.740;9.132;2023-08-30T12:31:05;15.50;99.90
8178;DHT22;4130;48.740;9.132;2023-08-30T12:33:33;15.50;99.90
8178;DHT22;4130;48.740;9.132;2023-08-30T12:36:00;15.50;99.90
8178;DHT22;4130;48.740;9.132;2023-08-30T12:38:28;15.50;99.90
8178;DHT22;4130;48.740;9.132;2023-08-30T12:40:55;15.70;99.90
8178;DHT22;4130;48.740;9.132;2023-08-30T12:43:23;15.80;99.90
8178;DHT22;4130;48.740;9.132;2023-08-30T12:45:50;16.00;99.90
8178;DHT22;4130;48.740;9.132;2023-08-30T12:48:18;17.40;99.90
8178;DHT22;4130;48.740;9.132;2023-08-30T12:50:46;16.70;99.90
8178;DHT22;4130;48.740;9.132;2023-08-30T12:53:14;16.40;99.90
8178;DHT22;4130;48.740;9.132;2023-08-30T12:55:42;16.60;99.90
8178;DHT22;4130;48.740;9.132;2023-08-30T12:58:08;16.40;99.90
8178;DHT22;4130;48.740;9.132;2023-08-30T13:00:37;16.60;99.90
8178;DHT22;4130;48.740;9.132;2023-08-30T13:03:04;17.80;99.90
8178;DHT22;4130;48.740;9.132;2023-08-30T13:05:32;16.90;99.90
8178;DHT22;4130;48.740;9.132;2023-08-30T13:08:00;17.10;99.90
8178;DHT22;4130;48.740;9.132;2023-08-30T13:10:28;17.90;99.90
8178;DHT22;4130;48.740;9.132;2023-08-30T13:12:55;17.20;99.90
8178;DHT22;4130;48.740;9.132;2023-08-30T13:15:22;17.40;99.90
8178;DHT22;4130;48.740;9.132;2023-08-30T13:17:49;17.50;99.90
8178;DHT22;4130;48.740;9.132;2023-08-30T13:20:16;17.60;99.90
8178;DHT22;4130;48.740;9.132;2023-08-30T13:22:45;18.30;99.90
8178;DHT22;4130;48.740;9.132;2023-08-30T13:25:12;18.00;99.90
8178;DHT22;4130;48.740;9.132;2023-08-30T13:27:39;18.00;99.90
8178;DHT22;4130;48.740;9.132;2023-08-30T13:30:06;18.00;99.90
8178;DHT22;4130;48.740;9.132;2023-08-30T13:32:33;18.20;99.90
8178;DHT22;4130;48.740;9.132;2023-08-30T13:35:01;18.30;99.90
8178;DHT22;4130;48.740;9.132;2023-08-30T13:37:28;19.50;99.90
8178;DHT22;4130;48.740;9.132;2023-08-30T13:39:56;19.10;99.90
8178;DHT22;4130;48.740;9.132;2023-08-30T13:42:23;19.30;99.90
8178;DHT22;4130;48.740;9.132;2023-08-30T13:44:52;19.80;99.90
8178;DHT22;4130;48.740;9.132;2023-08-30T13:47:19;19.20;99.90
8178;DHT22;4130;48.740;9.132;2023-08-30T13:49:46;18.90;99.90
8178;DHT22;4130;48.740;9.132;2023-08-30T13:52:13;18.90;99.90
8178;DHT22;4130;48.740;9.132;2023-08-30T13:54:39;18.70;99.90
8178;DHT22;4130;48.740;9.132;2023-08-30T13:57:08;19.90;99.90
8178;DHT22;4130;48.740;9.132;2023-08-30T13:59:35;18.80;99.90
8178;DHT22;4130;48.740;9.132;2023-08-30T14:02:02;18.90;99.90
8178;DHT22;4130;48.740;9.132;2023-08-30T14:04:29;18.90;99.90
8178;DHT22;4130;48.740;9.132;2023-08-30T14:06:58;19.10;99.90
8178;DHT22;4130;48.740;9.132;2023-08-30T14:09:24;19.10;99.90
8178;DHT22;4130;48.740;9.132;2023-08-30T14:11:51;19.70;99.90
8178;DHT22;4130;48.740;9.132;2023-08-30T14:14:19;19.10;99.90
8178;DHT22;4130;48.740;9.132;2023-08-30T14:16:46;20.30;99.90
8178;DHT22;4130;48.740;9.132;2023-08-30T14:19:15;19.00;99.90
8178;DHT22;4130;48.740;9.132;2023-08-30T14:21:42;19.10;99.90
8178;DHT22;4130;48.740;9.132;2023-08-30T14:24:09;20.30;99.90
8178;DHT22;4130;48.740;9.132;2023-08-30T14:26:36;18.60;99.90
8178;DHT22;4130;48.740;9.132;2023-08-30T14:29:03;19.30;99.90
8178;DHT22;4130;48.740;9.132;2023-08-30T14:31:31;18.50;99.90
8178;DHT22;4130;48.740;9.132;2023-08-30T14:33:58;19.10;99.90
8178;DHT22;4130;48.740;9.132;2023-08-30T14:36:24;19.00;99.90
8178;DHT22;4130;48.740;9.132;2023-08-30T14:38:51;18.40;99.90
8178;DHT22;4130;48.740;9.132;2023-08-30T14:41:19;19.80;99.90
8178;DHT22;4130;48.740;9.132;2023-08-30T14:43:45;19.80;99.90
8178;DHT22;4130;48.740;9.132;2023-08-30T14:46:12;18.20;99.90
8178;DHT22;4130;48.740;9.132;2023-08-30T14:48:42;19.40;99.90
8178;DHT22;4130;48.740;9.132;2023-08-30T14:51:09;17.80;99.90
8178;DHT22;4130;48.740;9.132;2023-08-30T14:53:48;18.40;99.90
8178;DHT22;4130;48.740;9.132;2023-08-30T14:56:14;17.40;99.90
8178;DHT22;4130;48.740;9.132;2023-08-30T14:58:43;18.50;99.90
8178;DHT22;4130;48.740;9.132;2023-08-30T15:01:14;17.30;99.90
8178;DHT22;4130;48.740;9.132;2023-08-30T15:03:42;17.40;99.90
8178;DHT22;4130;48.740;9.132;2023-08-30T15:06:10;18.20;99.90
8178;DHT22;4130;48.740;9.132;2023-08-30T15:08:37;18.70;99.90
8178;DHT22;4130;48.740;9.132;2023-08-30T15:11:05;17.60;99.90
8178;DHT22;4130;48.740;9.132;2023-08-30T15:13:34;19.50;99.90
8178;DHT22;4130;48.740;9.132;2023-08-30T15:16:03;18.00;99.90
8178;DHT22;4130;48.740;9.132;2023-08-30T15:18:30;18.20;99.90
8178;DHT22;4130;48.740;9.132;2023-08-30T15:20:58;19.60;99.90
8178;DHT22;4130;48.740;9.132;2023-08-30T15:23:27;20.00;99.90
8178;DHT22;4130;48.740;9.132;2023-08-30T15:25:54;19.30;99.90
8178;DHT22;4130;48.740;9.132;2023-08-30T15:28:21;18.90;99.90
8178;DHT22;4130;48.740;9.132;2023-08-30T15:30:48;19.10;99.90
8178;DHT22;4130;48.740;9.132;2023-08-30T15:33:17;20.50;99.90
8178;DHT22;4130;48.740;9.132;2023-08-30T15:35:45;20.40;99.90
8178;DHT22;4130;48.740;9.132;2023-08-30T15:38:13;19.20;99.90
8178;DHT22;4130;48.740;9.132;2023-08-30T15:40:41;18.70;99.90
8178;DHT22;4130;48.740;9.132;2023-08-30T15:43:08;18.60;99.90
8178;DHT22;4130;48.740;9.132;2023-08-30T15:45:35;18.40;99.90
8178;DHT22;4130;48.740;9.132;2023-08-30T15:48:02;19.50;99.90
8178;DHT22;4130;48.740;9.132;2023-08-30T15:50:29;18.50;99.90
8178;DHT22;4130;48.740;9.132;2023-08-30T15:52:55;18.60;99.90
8178;DHT22;4130;48.740;9.132;2023-08-30T15:55:24;18.80;99.90
8178;DHT22;4130;48.740;9.132;2023-08-30T15:57:54;18.80;99.90
8178;DHT22;4130;48.740;9.132;2023-08-30T16:00:21;18.80;99.90
8178;DHT22;4130;48.740;9.132;2023-08-30T16:02:49;18.70;99.90
8178;DHT22;4130;48.740;9.132;2023-08-30T16:05:18;18.80;99.90